Terminal Aerodrome Forecast
Issued by NWS

Home | Current Version | Previous Version | Text Only | Print | Product List | Glossary On
Versions: 1 2 3 4 5 6 7 8 9 10 11 12 13 14 15 16 17 18 19 20 21 22 23
000
FTUS45 KBOI 171720
TAFTWF
TAF
KTWF 171720Z 1718/1818 05006KT P6SM BKN200
     FM180400 15007KT P6SM VCSH SCT080 OVC150
     FM181000 21008G16KT P6SM -SHRA BKN130
     FM181700 26011G21KT P6SM FEW130 BKN200=

USA.gov is the U.S. government's official web portal to all federal, state and local government web resources and services.